createdAt,value
2017-08-22T00:00:21.797Z,972.38
2017-08-22T00:01:21.793Z,972.39
2017-08-22T00:02:21.789Z,972.37
2017-08-22T00:03:21.785Z,972.42
2017-08-22T00:04:21.783Z,972.38
2017-08-22T00:05:21.777Z,972.4
2017-08-22T00:06:21.773Z,972.4
2017-08-22T00:07:21.769Z,972.39
2017-08-22T00:08:21.765Z,972.42
2017-08-22T00:09:21.761Z,972.4
2017-08-22T00:10:21.757Z,972.39
2017-08-22T00:11:21.754Z,972.4
2017-08-22T00:12:21.749Z,972.41
2017-08-22T00:13:21.746Z,972.38
2017-08-22T00:14:21.742Z,972.38
2017-08-22T00:15:21.736Z,972.39
2017-08-22T00:16:21.732Z,972.4
2017-08-22T00:17:21.729Z,972.38
2017-08-22T00:18:21.725Z,972.38
2017-08-22T00:19:21.721Z,972.39
2017-08-22T00:20:21.717Z,972.34
2017-08-22T00:21:21.713Z,972.37
2017-08-22T00:22:21.709Z,972.36
2017-08-22T00:23:21.705Z,972.35
2017-08-22T00:24:21.701Z,972.39
2017-08-22T00:25:21.695Z,972.35
2017-08-22T00:26:21.693Z,972.37
2017-08-22T00:27:21.688Z,972.34
2017-08-22T00:28:21.684Z,972.34
2017-08-22T00:29:21.678Z,972.35
2017-08-22T00:30:21.677Z,972.3
2017-08-22T00:31:21.672Z,972.36
2017-08-22T00:32:21.667Z,972.35
2017-08-22T00:33:21.663Z,972.36
2017-08-22T00:34:21.660Z,972.36
2017-08-22T00:35:21.655Z,972.36
2017-08-22T00:36:21.652Z,972.38
2017-08-22T00:37:21.649Z,972.33
2017-08-22T00:38:21.645Z,972.34
2017-08-22T00:39:21.640Z,972.32
2017-08-22T00:40:21.649Z,972.36
2017-08-22T00:41:21.631Z,972.3
2017-08-22T00:42:21.626Z,972.28
2017-08-22T00:43:21.623Z,972.29
2017-08-22T00:44:21.619Z,972.31
2017-08-22T00:45:21.615Z,972.28
2017-08-22T00:46:21.612Z,972.32
2017-08-22T00:47:21.607Z,972.26
2017-08-22T00:48:21.603Z,972.29
2017-08-22T00:49:21.599Z,972.31
2017-08-22T00:50:21.594Z,972.25
2017-08-22T00:51:21.590Z,972.32
2017-08-22T00:52:21.586Z,972.33
2017-08-22T00:53:21.582Z,972.31
2017-08-22T00:54:21.577Z,972.36
2017-08-22T00:55:21.574Z,972.34
2017-08-22T00:56:21.570Z,972.31
2017-08-22T00:57:21.565Z,972.35
2017-08-22T00:58:21.562Z,972.32
2017-08-22T00:59:21.557Z,972.37
2017-08-22T01:00:21.553Z,972.4
2017-08-22T01:01:21.550Z,972.37
2017-08-22T01:02:21.544Z,972.39
2017-08-22T01:03:21.541Z,972.39
2017-08-22T01:04:21.537Z,972.35
2017-08-22T01:05:21.532Z,972.38
2017-08-22T01:06:21.529Z,972.38
2017-08-22T01:07:21.526Z,972.36
2017-08-22T01:08:21.520Z,972.42
2017-08-22T01:09:21.517Z,972.41
2017-08-22T01:10:21.513Z,972.44
2017-08-22T01:11:21.509Z,972.44
2017-08-22T01:12:21.503Z,972.49
2017-08-22T01:13:21.500Z,972.43
2017-08-22T01:14:21.497Z,972.44
2017-08-22T01:15:21.490Z,972.42
2017-08-22T01:16:21.487Z,972.43
2017-08-22T01:17:21.484Z,972.44
2017-08-22T01:18:21.480Z,972.44
2017-08-22T01:19:21.473Z,972.45
2017-08-22T01:20:21.472Z,972.42
2017-08-22T01:21:21.470Z,972.45
2017-08-22T01:22:21.463Z,972.44
2017-08-22T01:23:21.458Z,972.43
2017-08-22T01:24:21.455Z,972.46
2017-08-22T01:25:21.450Z,972.47
2017-08-22T01:26:21.446Z,972.42
2017-08-22T01:27:21.442Z,972.44
2017-08-22T01:28:21.438Z,972.46
2017-08-22T01:29:21.434Z,972.46
2017-08-22T01:30:21.428Z,972.5
2017-08-22T01:31:21.425Z,972.46
2017-08-22T01:32:21.422Z,972.46
2017-08-22T01:33:21.418Z,972.41
2017-08-22T01:34:21.416Z,972.42
2017-08-22T01:35:21.411Z,972.39
2017-08-22T01:36:21.405Z,972.41
2017-08-22T01:37:21.399Z,972.42
2017-08-22T01:38:21.397Z,972.38
2017-08-22T01:39:21.393Z,972.35
2017-08-22T01:40:21.388Z,972.32
2017-08-22T01:41:21.383Z,972.35
2017-08-22T01:42:21.378Z,972.31
2017-08-22T01:43:21.377Z,972.27
2017-08-22T01:44:21.373Z,972.24
2017-08-22T01:45:21.368Z,972.25
2017-08-22T01:46:21.366Z,972.25
2017-08-22T01:47:21.360Z,972.19
2017-08-22T01:48:21.355Z,972.21
2017-08-22T01:49:21.350Z,972.17
2017-08-22T01:50:21.346Z,972.19
2017-08-22T01:51:21.343Z,972.18
2017-08-22T01:52:21.337Z,972.19
2017-08-22T01:53:21.334Z,972.18
2017-08-22T01:54:21.330Z,972.15
2017-08-22T01:55:21.325Z,972.16
2017-08-22T01:56:21.320Z,972.18
2017-08-22T01:57:21.318Z,972.19
2017-08-22T01:58:21.313Z,972.21
2017-08-22T01:59:21.309Z,972.19
2017-08-22T02:00:21.304Z,972.19
2017-08-22T02:01:21.301Z,972.22
2017-08-22T02:02:21.298Z,972.19
2017-08-22T02:03:21.292Z,972.17
2017-08-22T02:04:21.288Z,972.19
2017-08-22T02:05:21.286Z,972.19
2017-08-22T02:06:21.279Z,972.2
2017-08-22T02:07:21.277Z,972.15
2017-08-22T02:08:21.271Z,972.11
2017-08-22T02:09:21.267Z,972.1
2017-08-22T02:10:21.262Z,972.14
2017-08-22T02:11:21.258Z,972.13
2017-08-22T02:12:21.274Z,972.19
2017-08-22T02:13:21.251Z,972.12
2017-08-22T02:14:21.248Z,972.16
2017-08-22T02:15:21.241Z,972.11
2017-08-22T02:16:21.238Z,972.13
2017-08-22T02:17:21.234Z,972.12
2017-08-22T02:18:21.229Z,972.1
2017-08-22T02:19:21.227Z,972.15
2017-08-22T02:20:21.220Z,972.12
2017-08-22T02:21:21.215Z,972.16
2017-08-22T02:22:21.211Z,972.11
2017-08-22T02:23:21.208Z,972.12
2017-08-22T02:24:21.204Z,972.14
2017-08-22T02:25:21.198Z,972.13
2017-08-22T02:26:21.196Z,972.1
2017-08-22T02:27:21.194Z,972.12
2017-08-22T02:28:21.187Z,972.12
2017-08-22T02:29:21.182Z,972.13
2017-08-22T02:30:21.179Z,972.07
2017-08-22T02:31:21.174Z,972.08
2017-08-22T02:32:21.170Z,972.11
2017-08-22T02:33:21.165Z,972.13
2017-08-22T02:34:21.161Z,972.08
2017-08-22T02:35:21.157Z,972.13
2017-08-22T02:36:21.152Z,972.1
2017-08-22T02:37:21.149Z,972.12
2017-08-22T02:38:21.145Z,972.13
2017-08-22T02:39:21.140Z,972.11
2017-08-22T02:40:21.153Z,972.12
2017-08-22T02:41:21.133Z,972.14
2017-08-22T02:42:21.128Z,972.15
2017-08-22T02:43:21.121Z,972.15
2017-08-22T02:44:21.118Z,972.15
2017-08-22T02:45:21.114Z,972.15
2017-08-22T02:46:21.110Z,972.18
2017-08-22T02:47:21.106Z,972.22
2017-08-22T02:48:21.100Z,972.17
2017-08-22T02:49:21.101Z,972.21
2017-08-22T02:50:21.091Z,972.18
2017-08-22T02:51:21.089Z,972.22
2017-08-22T02:52:21.084Z,972.18
2017-08-22T02:53:21.081Z,972.17
2017-08-22T02:54:21.076Z,972.14
2017-08-22T02:55:21.070Z,972.13
2017-08-22T02:56:21.067Z,972.12
2017-08-22T02:57:21.063Z,972.12
2017-08-22T02:58:21.059Z,972.14
2017-08-22T02:59:21.054Z,972.1
2017-08-22T03:00:21.050Z,972.15
2017-08-22T03:01:21.044Z,972.14
2017-08-22T03:02:21.040Z,972.13
2017-08-22T03:03:21.036Z,972.11
2017-08-22T03:04:21.033Z,972.14
2017-08-22T03:05:21.028Z,972.18
2017-08-22T03:06:21.025Z,972.16
2017-08-22T03:07:21.019Z,972.17
2017-08-22T03:08:21.016Z,972.23
2017-08-22T03:09:21.013Z,972.19
2017-08-22T03:10:21.007Z,972.25
2017-08-22T03:11:21.005Z,972.21
2017-08-22T03:12:20.999Z,972.26
2017-08-22T03:13:20.994Z,972.21
2017-08-22T03:14:20.991Z,972.23
2017-08-22T03:15:20.988Z,972.24
2017-08-22T03:16:20.981Z,972.19
2017-08-22T03:17:20.978Z,972.23
2017-08-22T03:18:20.974Z,972.24
2017-08-22T03:19:20.968Z,972.22
2017-08-22T03:20:20.964Z,972.22
2017-08-22T03:21:20.959Z,972.18
2017-08-22T03:22:20.957Z,972.22
2017-08-22T03:23:20.952Z,972.23
2017-08-22T03:24:20.948Z,972.24
2017-08-22T03:25:20.944Z,972.24
2017-08-22T03:26:20.938Z,972.23
2017-08-22T03:27:20.934Z,972.25
2017-08-22T03:28:20.929Z,972.26
2017-08-22T03:29:20.931Z,972.26
2017-08-22T03:30:20.921Z,972.27
2017-08-22T03:31:20.917Z,972.26
2017-08-22T03:32:20.913Z,972.3
2017-08-22T03:33:20.908Z,972.27
2017-08-22T03:34:20.903Z,972.28
2017-08-22T03:35:20.899Z,972.27
2017-08-22T03:36:20.896Z,972.29
2017-08-22T03:37:20.892Z,972.29
2017-08-22T03:38:20.886Z,972.3
2017-08-22T03:39:20.881Z,972.29
2017-08-22T03:40:20.893Z,972.3
2017-08-22T03:41:20.872Z,972.29
2017-08-22T03:42:20.868Z,972.31
2017-08-22T03:43:20.865Z,972.35
2017-08-22T03:44:20.861Z,972.34
2017-08-22T03:45:20.853Z,972.32
2017-08-22T03:46:20.852Z,972.31
2017-08-22T03:47:20.848Z,972.29
2017-08-22T03:48:20.842Z,972.25
2017-08-22T03:49:20.842Z,972.24
2017-08-22T03:50:20.833Z,972.2
2017-08-22T03:51:20.831Z,972.24
2017-08-22T03:52:20.825Z,972.24
2017-08-22T03:53:20.821Z,972.23
2017-08-22T03:54:20.819Z,972.26
2017-08-22T03:55:20.811Z,972.23
2017-08-22T03:56:20.806Z,972.24
2017-08-22T03:57:20.803Z,972.22
2017-08-22T03:58:20.798Z,972.17
2017-08-22T03:59:20.794Z,972.17
2017-08-22T04:00:20.790Z,972.14
2017-08-22T04:01:20.786Z,972.17
2017-08-22T04:02:20.781Z,972.19
2017-08-22T04:03:20.777Z,972.18
2017-08-22T04:04:20.772Z,972.2
2017-08-22T04:05:20.768Z,972.21
2017-08-22T04:06:20.765Z,972.22
2017-08-22T04:07:20.760Z,972.17
2017-08-22T04:08:20.754Z,972.18
2017-08-22T04:09:20.751Z,972.19
2017-08-22T04:10:20.747Z,972.18
2017-08-22T04:11:20.741Z,972.2
2017-08-22T04:12:20.739Z,972.21
2017-08-22T04:13:20.733Z,972.21
2017-08-22T04:14:20.728Z,972.21
2017-08-22T04:15:20.724Z,972.24
2017-08-22T04:16:20.720Z,972.23
2017-08-22T04:17:20.717Z,972.21
2017-08-22T04:18:20.710Z,972.23
2017-08-22T04:19:20.708Z,972.23
2017-08-22T04:20:20.702Z,972.25
2017-08-22T04:21:20.697Z,972.2
2017-08-22T04:22:20.692Z,972.23
2017-08-22T04:23:20.691Z,972.2
2017-08-22T04:24:20.684Z,972.24
2017-08-22T04:25:20.683Z,972.21
2017-08-22T04:26:20.677Z,972.18
2017-08-22T04:27:20.671Z,972.2
2017-08-22T04:28:20.667Z,972.2
2017-08-22T04:29:20.661Z,972.19
2017-08-22T04:30:20.658Z,972.19
2017-08-22T04:31:20.652Z,972.17
2017-08-22T04:32:20.650Z,972.17
2017-08-22T04:33:20.643Z,972.17
2017-08-22T04:34:20.640Z,972.18
2017-08-22T04:35:20.636Z,972.17
2017-08-22T04:36:20.630Z,972.14
2017-08-22T04:37:20.626Z,972.12
2017-08-22T04:38:20.622Z,972.15
2017-08-22T04:39:20.618Z,972.13
2017-08-22T04:40:20.624Z,972.12
2017-08-22T04:41:20.609Z,972.13
2017-08-22T04:42:20.603Z,972.16
2017-08-22T04:43:20.603Z,972.19
2017-08-22T04:44:20.598Z,972.17
2017-08-22T04:45:20.591Z,972.18
2017-08-22T04:46:20.588Z,972.19
2017-08-22T04:47:20.583Z,972.21
2017-08-22T04:48:20.579Z,972.23
2017-08-22T04:49:20.574Z,972.18
2017-08-22T04:50:20.570Z,972.16
2017-08-22T04:51:20.565Z,972.14
2017-08-22T04:52:20.561Z,972.15
2017-08-22T04:53:20.556Z,972.16
2017-08-22T04:54:20.556Z,972.17
2017-08-22T04:55:20.548Z,972.18
2017-08-22T04:56:20.543Z,972.21
2017-08-22T04:57:20.539Z,972.24
2017-08-22T04:58:20.533Z,972.21
2017-08-22T04:59:20.529Z,972.19
2017-08-22T05:00:20.525Z,972.2
2017-08-22T05:01:20.521Z,972.18
2017-08-22T05:02:20.517Z,972.18
2017-08-22T05:03:20.511Z,972.18
2017-08-22T05:04:20.507Z,972.17
2017-08-22T05:05:20.502Z,972.22
2017-08-22T05:06:20.498Z,972.2
2017-08-22T05:07:20.494Z,972.18
2017-08-22T05:08:20.490Z,972.13
2017-08-22T05:09:20.485Z,972.16
2017-08-22T05:10:20.480Z,972.18
2017-08-22T05:11:20.477Z,972.19
2017-08-22T05:12:20.473Z,972.2
2017-08-22T05:13:20.467Z,972.19
2017-08-22T05:14:20.464Z,972.2
2017-08-22T05:15:20.460Z,972.24
2017-08-22T05:16:20.454Z,972.24
2017-08-22T05:17:20.452Z,972.29
2017-08-22T05:18:20.446Z,972.3
2017-08-22T05:19:20.442Z,972.33
2017-08-22T05:20:20.437Z,972.33
2017-08-22T05:21:20.433Z,972.34
2017-08-22T05:22:20.431Z,972.36
2017-08-22T05:23:20.425Z,972.41
2017-08-22T05:24:20.423Z,972.35
2017-08-22T05:25:20.418Z,972.33
2017-08-22T05:26:20.414Z,972.38
2017-08-22T05:27:20.410Z,972.33
2017-08-22T05:28:20.406Z,972.36
2017-08-22T05:29:20.402Z,972.31
2017-08-22T05:30:20.399Z,972.35
2017-08-22T05:31:20.396Z,972.37
2017-08-22T05:32:20.391Z,972.36
2017-08-22T05:33:20.388Z,972.36
2017-08-22T05:34:20.384Z,972.39
2017-08-22T05:35:20.381Z,972.34
2017-08-22T05:36:20.377Z,972.31
2017-08-22T05:37:20.373Z,972.36
2017-08-22T05:38:20.373Z,972.33
2017-08-22T05:39:20.365Z,972.27
2017-08-22T05:40:20.362Z,972.31
2017-08-22T05:41:20.359Z,972.32
2017-08-22T05:42:20.355Z,972.33
2017-08-22T05:43:20.352Z,972.34
2017-08-22T05:44:20.352Z,972.34
2017-08-22T05:45:20.346Z,972.34
2017-08-22T05:46:20.340Z,972.33
2017-08-22T05:47:20.339Z,972.36
2017-08-22T05:48:20.335Z,972.36
2017-08-22T05:49:20.330Z,972.38
2017-08-22T05:50:20.329Z,972.38
2017-08-22T05:51:20.326Z,972.37
2017-08-22T05:52:20.323Z,972.42
2017-08-22T05:53:20.319Z,972.38
2017-08-22T05:54:20.317Z,972.35
2017-08-22T05:55:20.314Z,972.38
2017-08-22T05:56:20.312Z,972.33
2017-08-22T05:57:20.309Z,972.32
2017-08-22T05:58:20.306Z,972.28
2017-08-22T05:59:20.303Z,972.28
2017-08-22T06:00:20.301Z,972.31
2017-08-22T06:01:20.298Z,972.29
2017-08-22T06:02:20.297Z,972.3
2017-08-22T06:03:20.295Z,972.25
2017-08-22T06:04:20.291Z,972.3
2017-08-22T06:05:20.290Z,972.3
2017-08-22T06:06:20.289Z,972.33
2017-08-22T06:07:20.286Z,972.3
2017-08-22T06:08:20.285Z,972.34
2017-08-22T06:09:20.284Z,972.38
2017-08-22T06:10:20.280Z,972.36
2017-08-22T06:11:20.278Z,972.34
2017-08-22T06:12:20.281Z,972.38
2017-08-22T06:13:20.275Z,972.38
2017-08-22T06:14:20.273Z,972.38
2017-08-22T06:15:20.272Z,972.34
2017-08-22T06:16:20.271Z,972.36
2017-08-22T06:17:20.269Z,972.34
2017-08-22T06:18:20.268Z,972.39
2017-08-22T06:19:20.268Z,972.38
2017-08-22T06:20:20.267Z,972.38
2017-08-22T06:21:20.267Z,972.41
2017-08-22T06:22:20.264Z,972.32
2017-08-22T06:23:20.262Z,972.36
2017-08-22T06:24:20.268Z,972.3
2017-08-22T06:25:20.265Z,972.27
2017-08-22T06:26:20.259Z,972.28
2017-08-22T06:27:20.258Z,972.26
2017-08-22T06:28:20.257Z,972.25
2017-08-22T06:29:20.255Z,972.3
2017-08-22T06:30:20.253Z,972.23
2017-08-22T06:31:20.252Z,972.27
2017-08-22T06:32:20.251Z,972.26
2017-08-22T06:33:20.248Z,972.23
2017-08-22T06:34:20.245Z,972.23
2017-08-22T06:35:20.244Z,972.21
2017-08-22T06:36:20.245Z,972.16
2017-08-22T06:37:20.242Z,972.23
2017-08-22T06:38:20.243Z,972.16
2017-08-22T06:39:20.237Z,972.18
2017-08-22T06:40:20.235Z,972.18
2017-08-22T06:41:20.234Z,972.18
2017-08-22T06:42:20.232Z,972.2
2017-08-22T06:43:20.229Z,972.21
2017-08-22T06:44:20.228Z,972.22
2017-08-22T06:45:20.225Z,972.19
2017-08-22T06:46:20.223Z,972.22
2017-08-22T06:47:20.221Z,972.16
2017-08-22T06:48:20.217Z,972.18
2017-08-22T06:49:20.217Z,972.2
2017-08-22T06:50:20.213Z,972.19
2017-08-22T06:51:20.211Z,972.22
2017-08-22T06:52:20.207Z,972.18
2017-08-22T06:53:20.206Z,972.22
2017-08-22T06:54:20.205Z,972.24
2017-08-22T06:55:20.203Z,972.23
2017-08-22T06:56:20.198Z,972.24
2017-08-22T06:57:20.196Z,972.23
2017-08-22T06:58:20.194Z,972.26
2017-08-22T06:59:20.189Z,972.28
2017-08-22T07:00:20.187Z,972.23
2017-08-22T07:01:20.186Z,972.28
2017-08-22T07:02:20.182Z,972.28
2017-08-22T07:03:20.178Z,972.27
2017-08-22T07:04:20.177Z,972.26
2017-08-22T07:05:20.175Z,972.27
2017-08-22T07:06:20.169Z,972.27
2017-08-22T07:07:20.169Z,972.28
2017-08-22T07:08:20.166Z,972.26
2017-08-22T07:09:20.164Z,972.25
2017-08-22T07:10:20.160Z,972.28
2017-08-22T07:11:20.157Z,972.29
2017-08-22T07:12:20.155Z,972.3
2017-08-22T07:13:20.150Z,972.27
2017-08-22T07:14:20.149Z,972.31
2017-08-22T07:15:20.146Z,972.31
2017-08-22T07:16:20.143Z,972.34
2017-08-22T07:17:20.224Z,972.29
2017-08-22T07:18:20.136Z,972.35
2017-08-22T07:19:20.136Z,972.33
2017-08-22T07:20:20.134Z,972.35
2017-08-22T07:21:20.127Z,972.28
2017-08-22T07:22:20.126Z,972.31
2017-08-22T07:23:20.124Z,972.3
2017-08-22T07:24:20.120Z,972.29
2017-08-22T07:25:20.118Z,972.24
2017-08-22T07:26:20.115Z,972.27
2017-08-22T07:27:20.111Z,972.26
2017-08-22T07:28:20.105Z,972.28
2017-08-22T07:29:20.105Z,972.29
2017-08-22T07:30:20.103Z,972.28
2017-08-22T07:31:20.099Z,972.29
2017-08-22T07:32:20.097Z,972.27
2017-08-22T07:33:20.093Z,972.31
2017-08-22T07:34:20.089Z,972.29
2017-08-22T07:35:20.086Z,972.3
2017-08-22T07:36:20.082Z,972.32
2017-08-22T07:37:20.081Z,972.32
2017-08-22T07:38:20.078Z,972.32
2017-08-22T07:39:20.074Z,972.29
2017-08-22T07:40:20.071Z,972.3
2017-08-22T07:41:20.070Z,972.29
2017-08-22T07:42:20.065Z,972.27
2017-08-22T07:43:20.060Z,972.24
2017-08-22T07:44:20.060Z,972.25
2017-08-22T07:45:20.057Z,972.27
2017-08-22T07:46:20.054Z,972.3
2017-08-22T07:47:20.050Z,972.28
2017-08-22T07:48:20.047Z,972.3
2017-08-22T07:49:20.045Z,972.31
2017-08-22T07:50:20.042Z,972.31
2017-08-22T07:51:20.040Z,972.27
2017-08-22T07:52:20.036Z,972.29
2017-08-22T07:53:20.033Z,972.26
2017-08-22T07:54:20.037Z,972.28
2017-08-22T07:55:20.026Z,972.25
2017-08-22T07:56:20.024Z,972.26
2017-08-22T07:57:20.020Z,972.25
2017-08-22T07:58:20.018Z,972.25
2017-08-22T07:59:20.016Z,972.26
2017-08-22T08:00:20.015Z,972.28
2017-08-22T08:01:20.010Z,972.25
2017-08-22T08:02:20.006Z,972.23
2017-08-22T08:03:20.003Z,972.23
2017-08-22T08:04:20.002Z,972.19
2017-08-22T08:05:19.998Z,972.2
2017-08-22T08:06:19.995Z,972.18
2017-08-22T08:07:19.990Z,972.21
2017-08-22T08:08:19.989Z,972.13
2017-08-22T08:09:19.987Z,972.18
2017-08-22T08:10:19.983Z,972.13
2017-08-22T08:11:19.981Z,972.13
2017-08-22T08:12:19.977Z,972.12
2017-08-22T08:13:19.975Z,972.1
2017-08-22T08:14:19.972Z,972.11
2017-08-22T08:15:19.969Z,972.08
2017-08-22T08:16:19.964Z,972.07
2017-08-22T08:17:19.963Z,972.04
2017-08-22T08:18:19.961Z,972.03
2017-08-22T08:19:19.958Z,972.07
2017-08-22T08:20:19.954Z,972.06
2017-08-22T08:21:19.952Z,972.06
2017-08-22T08:22:19.948Z,972.03
2017-08-22T08:23:19.944Z,972.03
2017-08-22T08:24:19.943Z,972.02
2017-08-22T08:25:19.942Z,972
2017-08-22T08:26:19.937Z,972.02
2017-08-22T08:27:19.936Z,971.99
2017-08-22T08:28:19.932Z,972
2017-08-22T08:29:19.929Z,971.94
2017-08-22T08:30:19.927Z,971.94
2017-08-22T08:31:19.924Z,971.92
2017-08-22T08:32:19.922Z,971.92
2017-08-22T08:33:19.923Z,971.93
2017-08-22T08:34:19.914Z,971.92
2017-08-22T08:35:19.912Z,971.91
2017-08-22T08:36:19.910Z,971.93
2017-08-22T08:37:19.906Z,971.93
2017-08-22T08:38:19.904Z,971.94
2017-08-22T08:39:19.902Z,971.96
2017-08-22T08:40:19.898Z,971.91
2017-08-22T08:41:19.897Z,971.95
2017-08-22T08:42:19.892Z,971.91
2017-08-22T08:43:19.889Z,971.9
2017-08-22T08:44:19.886Z,971.9
2017-08-22T08:45:19.889Z,971.91
2017-08-22T08:46:19.882Z,971.94
2017-08-22T08:47:19.878Z,971.89
2017-08-22T08:48:19.874Z,971.88
2017-08-22T08:49:19.873Z,971.89
2017-08-22T08:50:19.870Z,971.88
2017-08-22T08:51:19.869Z,971.88
2017-08-22T08:52:19.865Z,971.89
2017-08-22T08:53:19.863Z,971.85
2017-08-22T08:54:19.861Z,971.85
2017-08-22T08:55:19.857Z,971.84
2017-08-22T08:56:19.854Z,971.79
2017-08-22T08:57:19.851Z,971.79
2017-08-22T08:58:19.849Z,971.78
2017-08-22T08:59:19.845Z,971.82
2017-08-22T09:00:19.843Z,971.78
2017-08-22T09:01:19.840Z,971.76
2017-08-22T09:02:19.839Z,971.71
2017-08-22T09:03:19.835Z,971.67
2017-08-22T09:04:19.833Z,971.67
2017-08-22T09:05:19.830Z,971.68
2017-08-22T09:06:19.828Z,971.63
2017-08-22T09:07:19.828Z,971.68
2017-08-22T09:08:19.821Z,971.64
2017-08-22T09:09:19.836Z,971.64
2017-08-22T09:10:19.815Z,971.6
2017-08-22T09:11:19.813Z,971.61
2017-08-22T09:12:19.811Z,971.61
2017-08-22T09:13:19.809Z,971.6
2017-08-22T09:14:19.819Z,971.61
2017-08-22T09:15:19.802Z,971.63
2017-08-22T09:16:19.807Z,971.62
2017-08-22T09:17:19.797Z,971.62
2017-08-22T09:18:19.794Z,971.58
2017-08-22T09:19:19.791Z,971.58
2017-08-22T09:20:19.790Z,971.55
2017-08-22T09:21:19.786Z,971.56
2017-08-22T09:22:19.785Z,971.56
2017-08-22T09:23:19.781Z,971.53
2017-08-22T09:24:19.779Z,971.51
2017-08-22T09:25:19.778Z,971.49
2017-08-22T09:26:19.773Z,971.52
2017-08-22T09:27:19.772Z,971.45
2017-08-22T09:28:19.769Z,971.47
2017-08-22T09:29:19.767Z,971.45
2017-08-22T09:30:19.765Z,971.43
2017-08-22T09:31:19.766Z,971.4
2017-08-22T09:32:19.759Z,971.38
2017-08-22T09:33:19.757Z,971.39
2017-08-22T09:34:19.754Z,971.39
2017-08-22T09:35:19.751Z,971.37
2017-08-22T09:36:19.751Z,971.37
2017-08-22T09:37:19.747Z,971.4
2017-08-22T09:38:19.746Z,971.39
2017-08-22T09:39:19.740Z,971.34
2017-08-22T09:40:19.738Z,971.38
2017-08-22T09:41:19.737Z,971.36
2017-08-22T09:42:19.736Z,971.35
2017-08-22T09:43:19.731Z,971.31
2017-08-22T09:44:19.729Z,971.31
2017-08-22T09:45:19.726Z,971.25
2017-08-22T09:46:19.724Z,971.27
2017-08-22T09:47:19.725Z,971.25
2017-08-22T09:48:19.717Z,971.26
2017-08-22T09:49:19.716Z,971.25
2017-08-22T09:50:19.713Z,971.25
2017-08-22T09:51:19.710Z,971.28
2017-08-22T09:52:19.707Z,971.25
2017-08-22T09:53:19.706Z,971.26
2017-08-22T09:54:19.702Z,971.26
2017-08-22T09:55:19.700Z,971.22
2017-08-22T09:56:19.697Z,971.23
2017-08-22T09:57:19.695Z,971.24
2017-08-22T09:58:19.691Z,971.24
2017-08-22T09:59:19.688Z,971.2
2017-08-22T10:00:19.686Z,971.19
2017-08-22T10:01:19.683Z,971.16
2017-08-22T10:02:19.681Z,971.19
2017-08-22T10:03:19.679Z,971.16
2017-08-22T10:04:19.676Z,971.16
2017-08-22T10:05:19.673Z,971.13
2017-08-22T10:06:19.671Z,971.14
2017-08-22T10:07:19.668Z,971.11
2017-08-22T10:08:19.666Z,971.07
2017-08-22T10:09:19.662Z,971.1
2017-08-22T10:10:19.658Z,971.08
2017-08-22T10:11:19.657Z,971.07
2017-08-22T10:12:19.654Z,971.05
2017-08-22T10:13:19.651Z,971.05
2017-08-22T10:14:19.648Z,971.04
2017-08-22T10:15:19.646Z,971.03
2017-08-22T10:16:19.642Z,971.05
2017-08-22T10:17:19.637Z,971.08
2017-08-22T10:18:19.638Z,971.07
2017-08-22T10:19:19.634Z,971.05
2017-08-22T10:20:19.631Z,971.06
2017-08-22T10:21:19.628Z,971.05
2017-08-22T10:22:19.625Z,971.04
2017-08-22T10:23:19.621Z,971.01
2017-08-22T10:24:19.619Z,971.02
2017-08-22T10:25:19.615Z,970.99
2017-08-22T10:26:19.613Z,970.97
2017-08-22T10:27:19.611Z,970.97
2017-08-22T10:28:19.608Z,970.98
2017-08-22T10:29:19.603Z,970.96
2017-08-22T10:30:19.602Z,970.95
2017-08-22T10:31:19.598Z,970.95
2017-08-22T10:32:19.594Z,970.93
2017-08-22T10:33:19.591Z,970.95
2017-08-22T10:34:19.588Z,970.93
2017-08-22T10:35:19.586Z,970.88
2017-08-22T10:36:19.583Z,970.92
2017-08-22T10:37:19.580Z,970.88
2017-08-22T10:38:19.577Z,970.91
2017-08-22T10:39:19.572Z,970.91
2017-08-22T10:40:19.570Z,970.83
2017-08-22T10:41:19.568Z,970.84
2017-08-22T10:42:19.564Z,970.82
2017-08-22T10:43:19.561Z,970.83
2017-08-22T10:44:19.558Z,970.85
2017-08-22T10:45:19.554Z,970.82
2017-08-22T10:46:19.552Z,970.81
2017-08-22T10:47:19.549Z,970.78
2017-08-22T10:48:19.547Z,970.79
2017-08-22T10:49:19.540Z,970.76
2017-08-22T10:50:19.540Z,970.77
2017-08-22T10:51:19.536Z,970.77
2017-08-22T10:52:19.532Z,970.77
2017-08-22T10:53:19.529Z,970.79
2017-08-22T10:54:19.530Z,970.76
2017-08-22T10:55:19.523Z,970.78
2017-08-22T10:56:19.519Z,970.76
2017-08-22T10:57:19.516Z,970.72
2017-08-22T10:58:19.515Z,970.76
2017-08-22T10:59:19.511Z,970.72
2017-08-22T11:00:19.508Z,970.72
2017-08-22T11:01:19.511Z,970.72
2017-08-22T11:02:19.502Z,970.65
2017-08-22T11:03:19.498Z,970.63
2017-08-22T11:04:19.496Z,970.69
2017-08-22T11:05:19.493Z,970.67
2017-08-22T11:06:19.489Z,970.68
2017-08-22T11:07:19.485Z,970.63
2017-08-22T11:08:19.483Z,970.64
2017-08-22T11:09:19.481Z,970.63
2017-08-22T11:10:19.478Z,970.6
2017-08-22T11:11:19.473Z,970.62
2017-08-22T11:12:19.469Z,970.64
2017-08-22T11:13:19.504Z,970.64
2017-08-22T11:14:19.462Z,970.58
2017-08-22T11:15:19.461Z,970.64
2017-08-22T11:16:19.458Z,970.63
2017-08-22T11:17:19.455Z,970.62
2017-08-22T11:18:19.451Z,970.65
2017-08-22T11:19:19.449Z,970.68
2017-08-22T11:20:19.446Z,970.66
2017-08-22T11:21:19.443Z,970.62
2017-08-22T11:22:19.440Z,970.57
2017-08-22T11:23:19.437Z,970.59
2017-08-22T11:24:19.433Z,970.56
2017-08-22T11:25:19.428Z,970.57
2017-08-22T11:26:19.426Z,970.54
2017-08-22T11:27:19.422Z,970.55
2017-08-22T11:28:19.420Z,970.52
2017-08-22T11:29:19.417Z,970.51
2017-08-22T11:30:19.414Z,970.47
2017-08-22T11:31:19.409Z,970.51
2017-08-22T11:32:19.407Z,970.48
2017-08-22T11:33:19.403Z,970.49
2017-08-22T11:34:19.400Z,970.51
2017-08-22T11:35:19.398Z,970.47
2017-08-22T11:36:19.395Z,970.48
2017-08-22T11:37:19.391Z,970.52
2017-08-22T11:38:19.390Z,970.45
2017-08-22T11:39:19.388Z,970.42
2017-08-22T11:40:19.382Z,970.42
2017-08-22T11:41:19.381Z,970.42
2017-08-22T11:42:19.376Z,970.4
2017-08-22T11:43:19.373Z,970.42
2017-08-22T11:44:19.369Z,970.39
2017-08-22T11:45:19.368Z,970.39
2017-08-22T11:46:19.364Z,970.41
2017-08-22T11:47:19.359Z,970.39
2017-08-22T11:48:19.358Z,970.42
2017-08-22T11:49:19.355Z,970.36
2017-08-22T11:50:19.352Z,970.36
2017-08-22T11:51:19.349Z,970.37
2017-08-22T11:52:19.345Z,970.3
2017-08-22T11:53:19.343Z,970.36
2017-08-22T11:54:19.341Z,970.34
2017-08-22T11:55:19.337Z,970.31
2017-08-22T11:56:19.333Z,970.3
2017-08-22T11:57:19.331Z,970.33
2017-08-22T11:58:19.327Z,970.33
2017-08-22T11:59:19.325Z,970.28
2017-08-22T12:00:19.323Z,970.34
2017-08-22T12:01:19.321Z,970.32
2017-08-22T12:02:19.316Z,970.3
2017-08-22T12:03:19.315Z,970.35
2017-08-22T12:04:19.312Z,970.36
2017-08-22T12:05:19.310Z,970.36
2017-08-22T12:06:19.307Z,970.34
2017-08-22T12:07:19.305Z,970.37
2017-08-22T12:08:19.305Z,970.31
2017-08-22T12:09:19.299Z,970.31
2017-08-22T12:10:19.297Z,970.29
2017-08-22T12:11:19.294Z,970.3
2017-08-22T12:12:19.291Z,970.33
2017-08-22T12:13:19.289Z,970.31
2017-08-22T12:14:19.286Z,970.33
2017-08-22T12:15:19.285Z,970.31
2017-08-22T12:16:19.281Z,970.35
2017-08-22T12:17:19.279Z,970.33
2017-08-22T12:18:19.275Z,970.34
2017-08-22T12:19:19.274Z,970.31
2017-08-22T12:20:19.278Z,970.32
2017-08-22T12:21:19.271Z,970.33
2017-08-22T12:22:19.268Z,970.3
2017-08-22T12:23:19.267Z,970.3
2017-08-22T12:24:19.261Z,970.32
2017-08-22T12:25:19.263Z,970.29
2017-08-22T12:26:19.259Z,970.31
2017-08-22T12:27:19.258Z,970.28
2017-08-22T12:28:19.252Z,970.31
2017-08-22T12:29:19.251Z,970.28
2017-08-22T12:30:19.250Z,970.32